Time;durP1;ratioP1;P1;durP2;ratioP2;P2;SDS_P1;SDS_P2;PMS_P1;PMS_P2;Temp;Humidity;BMP_temperature;BMP_pressure;BME280_temperature;BME280_humidity;BME280_pressure;Samples;Min_cycle;Max_cycle;Signal;HPM_P1;HPM_P2
2023/01/23 00:02:09;;;;;;;3.40;1.80;;;;;;;;;;5055716;28;20083;-69
2023/01/23 00:04:35;;;;;;;2.00;1.50;;;;;;;;;;5055767;28;20029;-69
2023/01/23 00:07:02;;;;;;;1.93;1.50;;;;;;;;;;5055754;28;20041;-69
2023/01/23 00:09:28;;;;;;;2.57;1.70;;;;;;;;;;5055788;28;20079;-69
2023/01/23 00:11:54;;;;;;;2.33;1.60;;;;;;;;;;5055323;28;20044;-69
2023/01/23 00:14:20;;;;;;;2.73;1.73;;;;;;;;;;5055561;28;20497;-69
2023/01/23 00:16:46;;;;;;;2.67;1.87;;;;;;;;;;5055620;28;20107;-69
2023/01/23 00:19:12;;;;;;;2.60;1.70;;;;;;;;;;5055410;28;20088;-69
2023/01/23 00:21:38;;;;;;;2.30;1.50;;;;;;;;;;5055262;28;20564;-69
2023/01/23 00:24:05;;;;;;;2.20;1.43;;;;;;;;;;5055277;28;20039;-69
2023/01/23 00:26:32;;;;;;;3.60;1.73;;;;;;;;;;5054006;28;20528;-69
2023/01/23 00:28:58;;;;;;;3.23;1.83;;;;;;;;;;5053895;28;20426;-69
2023/01/23 00:31:25;;;;;;;3.77;1.80;;;;;;;;;;5055069;28;20029;-69
2023/01/23 00:33:56;;;;;;;3.17;1.60;;;;;;;;;;5054910;28;20041;-69
2023/01/23 00:36:22;;;;;;;2.53;1.70;;;;;;;;;;5053996;28;20471;-69
2023/01/23 00:38:48;;;;;;;2.63;1.60;;;;;;;;;;5053977;28;20053;-70
2023/01/23 00:41:14;;;;;;;3.13;1.73;;;;;;;;;;5055031;28;20033;-69
2023/01/23 00:43:40;;;;;;;5.77;1.63;;;;;;;;;;5054918;28;20067;-70
2023/01/23 00:46:07;;;;;;;2.67;1.80;;;;;;;;;;5054944;28;20067;-69
2023/01/23 00:48:33;;;;;;;2.63;2.00;;;;;;;;;;5054959;28;20056;-69
2023/01/23 00:50:59;;;;;;;3.23;1.77;;;;;;;;;;5054964;28;20026;-70
2023/01/23 00:53:25;;;;;;;2.60;1.70;;;;;;;;;;5054638;28;20059;-70
2023/01/23 00:55:52;;;;;;;3.00;1.70;;;;;;;;;;5052868;28;20036;-69
2023/01/23 00:58:18;;;;;;;2.70;1.70;;;;;;;;;;5054647;28;20063;-70
2023/01/23 01:00:44;;;;;;;2.37;1.57;;;;;;;;;;5054744;28;20044;-69
2023/01/23 01:03:10;;;;;;;5.37;1.90;;;;;;;;;;5054604;28;20045;-69
2023/01/23 01:05:36;;;;;;;2.47;1.60;;;;;;;;;;5054751;28;20040;-69
2023/01/23 01:08:02;;;;;;;3.63;1.80;;;;;;;;;;5054512;28;20521;-69
2023/01/23 01:10:30;;;;;;;2.90;1.47;;;;;;;;;;5054517;28;20036;-69
2023/01/23 01:12:56;;;;;;;2.17;1.30;;;;;;;;;;5054634;28;20029;-70
2023/01/23 01:15:22;;;;;;;2.20;1.37;;;;;;;;;;5054364;28;20493;-69
2023/01/23 01:17:49;;;;;;;5.20;1.63;;;;;;;;;;5054185;28;20087;-69
2023/01/23 01:20:15;;;;;;;2.13;1.20;;;;;;;;;;5054075;28;20044;-70
2023/01/23 01:22:41;;;;;;;2.97;1.33;;;;;;;;;;5054465;28;20486;-70
2023/01/23 01:25:07;;;;;;;5.97;1.40;;;;;;;;;;5054157;28;20087;-69
2023/01/23 01:27:33;;;;;;;2.60;1.20;;;;;;;;;;5052840;28;20124;-69
2023/01/23 01:29:59;;;;;;;3.20;1.40;;;;;;;;;;5054090;28;20037;-69
2023/01/23 01:32:26;;;;;;;2.13;1.13;;;;;;;;;;5052671;28;20389;-69
2023/01/23 01:34:52;;;;;;;2.93;1.00;;;;;;;;;;5053821;28;20076;-70
2023/01/23 01:37:21;;;;;;;1.57;1.03;;;;;;;;;;5053972;28;20040;-71
2023/01/23 01:39:47;;;;;;;2.90;1.30;;;;;;;;;;5053629;28;20033;-68
2023/01/23 01:42:13;;;;;;;1.63;1.10;;;;;;;;;;5052656;28;20071;-69
2023/01/23 01:45:09;;;;;;;2.63;1.30;;;;;;;;;;5053811;28;20025;-70
2023/01/23 01:47:35;;;;;;;2.47;1.10;;;;;;;;;;5016914;28;20034;-70
2023/01/23 01:50:03;;;;;;;2.53;1.17;;;;;;;;;;5052088;28;20446;-70
2023/01/23 01:52:29;;;;;;;1.27;1.10;;;;;;;;;;5053649;28;20037;-69
2023/01/23 01:54:58;;;;;;;3.40;1.40;;;;;;;;;;5053697;28;20029;-70
2023/01/23 01:57:34;;;;;;;1.60;1.00;;;;;;;;;;5053419;28;20067;-69
2023/01/23 02:00:00;;;;;;;2.47;1.10;;;;;;;;;;5050693;28;20079;-68
2023/01/23 02:02:28;;;;;;;8.27;1.73;;;;;;;;;;5050464;28;20159;-69
2023/01/23 02:04:59;;;;;;;2.83;1.60;;;;;;;;;;5051752;28;20033;-69
2023/01/23 02:07:38;;;;;;;2.30;1.10;;;;;;;;;;5053359;28;20056;-69
2023/01/23 02:10:05;;;;;;;2.30;1.00;;;;;;;;;;5053488;28;20067;-69
2023/01/23 02:12:33;;;;;;;1.60;1.03;;;;;;;;;;5052883;28;20078;-69
2023/01/23 02:15:00;;;;;;;1.27;1.00;;;;;;;;;;5053154;28;20036;-69
2023/01/23 02:17:26;;;;;;;1.73;0.90;;;;;;;;;;5053180;28;20051;-69
2023/01/23 02:20:10;;;;;;;2.60;1.20;;;;;;;;;;5053121;28;20061;-70
2023/01/23 02:22:49;;;;;;;2.93;1.20;;;;;;;;;;5052751;28;20102;-70
2023/01/23 02:25:25;;;;;;;2.80;1.20;;;;;;;;;;5052957;28;20036;-69
2023/01/23 02:27:51;;;;;;;3.07;1.33;;;;;;;;;;5052899;28;20033;-69
2023/01/23 02:30:18;;;;;;;2.43;1.40;;;;;;;;;;5053067;28;20479;-69
2023/01/23 02:32:44;;;;;;;2.77;1.70;;;;;;;;;;5053178;28;20490;-69
2023/01/23 02:35:15;;;;;;;2.33;1.40;;;;;;;;;;5052600;28;20040;-69
2023/01/23 02:37:43;;;;;;;1.90;1.30;;;;;;;;;;5051024;28;20037;-69
2023/01/23 02:40:10;;;;;;;2.97;1.57;;;;;;;;;;5051339;28;20036;-69
2023/01/23 02:42:37;;;;;;;4.37;2.20;;;;;;;;;;5052396;28;20056;-69
2023/01/23 02:45:04;;;;;;;6.40;2.10;;;;;;;;;;5052714;28;20052;-69
2023/01/23 02:47:32;;;;;;;2.67;1.70;;;;;;;;;;5052709;28;20041;-69
2023/01/23 02:49:58;;;;;;;2.23;1.40;;;;;;;;;;5052872;28;20112;-69
2023/01/23 02:52:24;;;;;;;1.40;1.10;;;;;;;;;;5052661;28;20047;-69
2023/01/23 02:54:50;;;;;;;2.07;1.30;;;;;;;;;;5052807;28;20041;-69
2023/01/23 02:57:16;;;;;;;2.63;1.53;;;;;;;;;;5052389;28;20048;-69
2023/01/23 03:02:27;;;;;;;3.83;1.40;;;;;;;;;;5052229;28;20110;-69
2023/01/23 03:04:53;;;;;;;2.97;1.20;;;;;;;;;;5052575;28;20466;-69
2023/01/23 03:07:19;;;;;;;3.23;1.50;;;;;;;;;;5052512;28;20037;-70
2023/01/23 03:09:47;;;;;;;1.87;1.40;;;;;;;;;;5052505;28;20093;-70
2023/01/23 03:12:14;;;;;;;1.70;1.27;;;;;;;;;;5052569;28;20115;-70
2023/01/23 03:14:40;;;;;;;2.17;1.47;;;;;;;;;;5051234;28;20033;-70
2023/01/23 03:17:07;;;;;;;1.63;1.20;;;;;;;;;;5052692;28;20083;-69
2023/01/23 03:19:33;;;;;;;1.83;1.20;;;;;;;;;;5056455;28;20036;-70
2023/01/23 03:21:59;;;;;;;3.37;1.03;;;;;;;;;;5056422;28;20482;-70
2023/01/23 03:24:25;;;;;;;5.20;0.90;;;;;;;;;;5056350;28;20029;-70
2023/01/23 03:26:51;;;;;;;3.53;1.13;;;;;;;;;;5056372;28;20036;-70
2023/01/23 03:32:04;;;;;;;6.63;1.20;;;;;;;;;;5056612;28;20055;-69
2023/01/23 03:34:30;;;;;;;4.40;1.30;;;;;;;;;;5056254;28;20112;-70
2023/01/23 03:36:57;;;;;;;1.87;1.10;;;;;;;;;;5054881;28;20490;-69
2023/01/23 03:42:08;;;;;;;1.53;1.20;;;;;;;;;;5056650;28;20107;-69
2023/01/23 03:44:34;;;;;;;5.50;1.20;;;;;;;;;;5055663;28;20033;-69
2023/01/23 03:47:00;;;;;;;1.50;1.00;;;;;;;;;;5056058;28;20044;-69
2023/01/23 03:49:26;;;;;;;2.10;1.07;;;;;;;;;;5055907;28;20033;-69
2023/01/23 03:51:52;;;;;;;1.83;1.00;;;;;;;;;;5055865;28;20037;-69
2023/01/23 03:54:19;;;;;;;1.27;0.90;;;;;;;;;;5055772;28;20487;-70
2023/01/23 03:56:45;;;;;;;1.57;1.13;;;;;;;;;;5055646;28;20041;-69
2023/01/23 03:59:11;;;;;;;1.73;1.10;;;;;;;;;;5054082;28;20045;-69
2023/01/23 04:01:37;;;;;;;1.33;0.90;;;;;;;;;;5055873;28;20132;-69
2023/01/23 04:04:03;;;;;;;2.40;1.00;;;;;;;;;;5055291;28;20029;-71
2023/01/23 04:06:29;;;;;;;1.50;0.90;;;;;;;;;;5055628;28;20091;-69
2023/01/23 04:08:57;;;;;;;1.10;0.80;;;;;;;;;;5055889;28;20112;-70
2023/01/23 04:11:23;;;;;;;1.73;0.80;;;;;;;;;;5055626;28;20124;-70
2023/01/23 04:13:50;;;;;;;1.80;0.97;;;;;;;;;;5054944;28;20044;-69
2023/01/23 04:16:16;;;;;;;2.07;0.80;;;;;;;;;;5055355;28;20041;-69
2023/01/23 04:18:42;;;;;;;1.93;0.70;;;;;;;;;;5055188;28;20493;-70
2023/01/23 04:21:08;;;;;;;2.03;0.77;;;;;;;;;;5055039;28;20095;-69
2023/01/23 04:23:34;;;;;;;0.70;0.50;;;;;;;;;;5053692;28;20479;-69
2023/01/23 04:26:00;;;;;;;1.30;0.70;;;;;;;;;;5055215;28;20044;-70
2023/01/23 04:28:26;;;;;;;6.83;0.80;;;;;;;;;;5054830;28;20037;-69
2023/01/23 04:30:52;;;;;;;1.53;0.70;;;;;;;;;;5054919;28;20130;-69
2023/01/23 04:33:19;;;;;;;2.27;0.70;;;;;;;;;;5054855;28;20029;-69
2023/01/23 04:36:04;;;;;;;1.23;0.63;;;;;;;;;;5054753;28;20029;-69
2023/01/23 04:38:30;;;;;;;2.43;0.60;;;;;;;;;;5054858;28;20556;-69
2023/01/23 04:40:56;;;;;;;2.47;0.53;;;;;;;;;;5053597;28;20111;-70
2023/01/23 04:43:23;;;;;;;0.80;0.53;;;;;;;;;;5054689;28;20045;-70
2023/01/23 04:45:53;;;;;;;0.70;0.50;;;;;;;;;;5053420;28;20036;-69
2023/01/23 04:48:19;;;;;;;0.57;0.50;;;;;;;;;;5054402;28;20083;-70
2023/01/23 04:50:45;;;;;;;0.50;0.50;;;;;;;;;;5053366;28;20120;-69
2023/01/23 04:53:13;;;;;;;0.70;0.47;;;;;;;;;;5054401;28;20090;-69
2023/01/23 04:55:39;;;;;;;0.60;0.43;;;;;;;;;;5054524;28;20119;-70
2023/01/23 04:58:05;;;;;;;0.40;0.33;;;;;;;;;;5052978;28;20102;-70
2023/01/23 05:00:31;;;;;;;0.97;0.60;;;;;;;;;;5054783;28;20029;-70
2023/01/23 05:02:58;;;;;;;1.80;0.80;;;;;;;;;;5054571;28;20080;-70
2023/01/23 05:05:25;;;;;;;0.90;0.50;;;;;;;;;;5054570;28;20494;-70
2023/01/23 05:07:51;;;;;;;0.63;0.37;;;;;;;;;;5054135;28;20041;-69
2023/01/23 05:10:18;;;;;;;0.60;0.40;;;;;;;;;;5054269;28;20068;-70
2023/01/23 05:12:44;;;;;;;0.40;0.30;;;;;;;;;;5054604;28;20068;-70
2023/01/23 05:15:10;;;;;;;0.47;0.33;;;;;;;;;;5054234;28;20108;-70
2023/01/23 05:17:36;;;;;;;1.57;0.50;;;;;;;;;;5054185;28;20041;-70
2023/01/23 05:20:03;;;;;;;1.40;0.40;;;;;;;;;;5054292;28;20041;-69
2023/01/23 05:22:30;;;;;;;0.40;0.30;;;;;;;;;;5053799;28;20049;-70
2023/01/23 05:24:56;;;;;;;1.90;0.30;;;;;;;;;;5053692;28;20069;-70
2023/01/23 05:27:22;;;;;;;0.40;0.20;;;;;;;;;;5054070;28;20033;-70
2023/01/23 05:29:48;;;;;;;0.50;0.20;;;;;;;;;;5054079;28;20032;-70
2023/01/23 05:32:14;;;;;;;0.77;0.40;;;;;;;;;;5053823;28;20525;-69
2023/01/23 05:34:40;;;;;;;0.73;0.40;;;;;;;;;;5053824;28;20112;-69
2023/01/23 05:37:06;;;;;;;0.87;0.40;;;;;;;;;;5053966;28;20033;-70
2023/01/23 05:39:32;;;;;;;2.47;0.50;;;;;;;;;;5053580;28;20064;-70
2023/01/23 05:41:59;;;;;;;0.40;0.30;;;;;;;;;;5039653;28;20124;-69
2023/01/23 05:44:25;;;;;;;0.47;0.20;;;;;;;;;;5033722;28;20083;-70
2023/01/23 05:46:51;;;;;;;0.40;0.33;;;;;;;;;;5033557;28;20034;-70
2023/01/23 05:49:17;;;;;;;0.50;0.40;;;;;;;;;;5033799;28;20561;-70
2023/01/23 05:51:43;;;;;;;1.77;0.43;;;;;;;;;;5033890;28;20033;-70
2023/01/23 05:54:09;;;;;;;1.00;0.50;;;;;;;;;;5033844;28;20056;-70
2023/01/23 05:56:35;;;;;;;0.67;0.40;;;;;;;;;;5033561;28;20041;-69
2023/01/23 05:59:04;;;;;;;1.73;0.50;;;;;;;;;;5033387;28;20149;-69
2023/01/23 06:01:30;;;;;;;0.40;0.40;;;;;;;;;;5033495;28;20048;-70
2023/01/23 06:03:56;;;;;;;0.53;0.40;;;;;;;;;;5033571;28;20029;-70
2023/01/23 06:06:22;;;;;;;0.63;0.30;;;;;;;;;;5033399;28;20045;-69
2023/01/23 06:08:48;;;;;;;0.20;0.20;;;;;;;;;;5033364;28;20040;-70
2023/01/23 06:11:14;;;;;;;0.20;0.10;;;;;;;;;;5033476;28;20453;-69
2023/01/23 06:13:40;;;;;;;1.53;0.20;;;;;;;;;;5033585;28;20038;-70
2023/01/23 06:16:06;;;;;;;0.20;0.10;;;;;;;;;;5033425;28;20486;-70
2023/01/23 06:18:32;;;;;;;0.30;0.20;;;;;;;;;;5033339;28;20093;-69
2023/01/23 06:20:59;;;;;;;0.70;0.37;;;;;;;;;;5033073;28;20033;-70
2023/01/23 06:23:25;;;;;;;1.03;0.40;;;;;;;;;;5033258;28;20063;-70
2023/01/23 06:25:52;;;;;;;0.33;0.20;;;;;;;;;;5033162;28;20026;-70
2023/01/23 06:28:18;;;;;;;0.37;0.20;;;;;;;;;;5032946;28;20572;-70
2023/01/23 06:30:44;;;;;;;0.37;0.20;;;;;;;;;;5033244;28;20061;-70
2023/01/23 06:33:10;;;;;;;0.80;0.50;;;;;;;;;;5033376;28;20026;-70
2023/01/23 06:35:36;;;;;;;0.60;0.40;;;;;;;;;;5033060;28;20029;-70
2023/01/23 06:38:02;;;;;;;0.10;0.10;;;;;;;;;;5033201;28;20033;-70
2023/01/23 06:40:28;;;;;;;0.20;0.10;;;;;;;;;;5033154;28;20033;-70
2023/01/23 06:42:55;;;;;;;0.10;0.00;;;;;;;;;;5032796;28;20502;-70
2023/01/23 06:45:21;;;;;;;0.20;0.00;;;;;;;;;;5033093;28;20034;-70
2023/01/23 06:47:47;;;;;;;0.20;0.10;;;;;;;;;;5032759;28;20406;-68
2023/01/23 06:50:13;;;;;;;0.57;0.20;;;;;;;;;;5033038;28;20044;-70
2023/01/23 06:52:39;;;;;;;1.67;0.10;;;;;;;;;;5032035;28;20048;-68
2023/01/23 06:55:06;;;;;;;0.87;0.30;;;;;;;;;;5032504;28;20033;-69
2023/01/23 06:57:33;;;;;;;1.70;0.47;;;;;;;;;;5032166;28;20060;-69
2023/01/23 06:59:59;;;;;;;1.20;0.50;;;;;;;;;;5032378;28;20045;-69
2023/01/23 07:02:25;;;;;;;2.93;0.27;;;;;;;;;;5032243;28;20073;-69
2023/01/23 07:04:51;;;;;;;0.23;0.10;;;;;;;;;;5032105;28;20033;-70
2023/01/23 07:07:18;;;;;;;0.17;0.13;;;;;;;;;;5032336;28;20503;-69
2023/01/23 07:09:44;;;;;;;0.20;0.10;;;;;;;;;;5031423;28;20037;-72
2023/01/23 07:12:10;;;;;;;0.20;0.20;;;;;;;;;;5032363;28;20484;-68
2023/01/23 07:14:36;;;;;;;0.17;0.17;;;;;;;;;;5032355;28;20041;-69
2023/01/23 07:17:02;;;;;;;0.20;0.10;;;;;;;;;;5032099;28;20037;-69
2023/01/23 07:19:28;;;;;;;0.80;0.10;;;;;;;;;;5032038;28;20033;-69
2023/01/23 07:21:54;;;;;;;0.30;0.10;;;;;;;;;;5031996;28;20045;-69
2023/01/23 07:24:20;;;;;;;2.50;0.30;;;;;;;;;;5032524;28;20132;-69
2023/01/23 07:26:46;;;;;;;0.10;0.10;;;;;;;;;;5032771;28;20041;-69
2023/01/23 07:29:13;;;;;;;0.50;0.20;;;;;;;;;;5031018;28;20041;-69
2023/01/23 07:31:39;;;;;;;0.50;0.10;;;;;;;;;;5032195;28;20372;-69
2023/01/23 07:34:05;;;;;;;0.57;0.43;;;;;;;;;;5032166;28;20037;-69
2023/01/23 07:36:31;;;;;;;0.77;0.53;;;;;;;;;;5032331;28;20063;-69
2023/01/23 07:38:57;;;;;;;0.50;0.30;;;;;;;;;;5032225;28;20086;-70
2023/01/23 07:41:24;;;;;;;5.47;0.60;;;;;;;;;;5032041;28;20069;-69
2023/01/23 07:43:50;;;;;;;5.80;1.07;;;;;;;;;;5029032;28;20040;-71
2023/01/23 07:46:16;;;;;;;1.70;0.30;;;;;;;;;;5028781;28;20398;-73
2023/01/23 07:48:42;;;;;;;1.80;0.17;;;;;;;;;;5028949;28;20121;-69
2023/01/23 07:51:08;;;;;;;2.73;0.20;;;;;;;;;;5030486;28;20041;-69
2023/01/23 07:53:34;;;;;;;0.40;0.20;;;;;;;;;;5030752;28;20029;-69
2023/01/23 07:56:03;;;;;;;0.77;0.17;;;;;;;;;;5030924;28;20087;-68
2023/01/23 07:58:29;;;;;;;0.20;0.20;;;;;;;;;;5030410;28;20053;-69
2023/01/23 08:00:55;;;;;;;75.07;7.77;;;;;;;;;;5031524;28;20497;-69
2023/01/23 08:03:21;;;;;;;4.13;0.40;;;;;;;;;;5031337;28;20359;-69
2023/01/23 08:05:48;;;;;;;7.73;0.80;;;;;;;;;;5034413;28;20049;-70
2023/01/23 08:08:14;;;;;;;0.10;0.10;;;;;;;;;;5034524;28;20033;-70
2023/01/23 08:10:41;;;;;;;4.57;0.30;;;;;;;;;;5034511;28;20088;-69
2023/01/23 08:13:07;;;;;;;5.50;1.13;;;;;;;;;;5034345;28;20113;-69
2023/01/23 08:15:33;;;;;;;1.33;0.17;;;;;;;;;;5034399;28;20033;-68
2023/01/23 08:17:59;;;;;;;0.33;0.00;;;;;;;;;;5034176;28;20033;-69
2023/01/23 08:20:25;;;;;;;67.43;1.80;;;;;;;;;;5031996;28;20045;-69
2023/01/23 08:22:51;;;;;;;2.00;0.10;;;;;;;;;;5031763;28;20049;-69
2023/01/23 08:25:17;;;;;;;3.03;0.50;;;;;;;;;;5033614;28;20037;-70
2023/01/23 08:27:43;;;;;;;0.10;0.10;;;;;;;;;;5034806;28;20475;-70
2023/01/23 08:30:10;;;;;;;3.60;0.10;;;;;;;;;;5050758;28;20041;-70
2023/01/23 08:32:36;;;;;;;1.90;0.10;;;;;;;;;;5053861;28;20041;-69
2023/01/23 08:35:03;;;;;;;0.00;0.00;;;;;;;;;;5051967;28;20052;-68
2023/01/23 08:37:29;;;;;;;1.70;0.20;;;;;;;;;;5049566;28;20032;-68
2023/01/23 08:39:55;;;;;;;0.97;0.40;;;;;;;;;;5033787;28;20025;-69
2023/01/23 08:42:21;;;;;;;1.50;0.10;;;;;;;;;;5033957;28;20550;-70
2023/01/23 08:44:47;;;;;;;0.20;0.10;;;;;;;;;;5033312;28;20057;-69
2023/01/23 08:47:13;;;;;;;0.93;0.20;;;;;;;;;;5032430;28;20160;-68
2023/01/23 08:49:40;;;;;;;0.83;0.20;;;;;;;;;;5033709;28;20033;-69
2023/01/23 08:52:06;;;;;;;0.10;0.00;;;;;;;;;;5034523;28;20589;-68
2023/01/23 08:54:33;;;;;;;0.10;0.10;;;;;;;;;;5034449;28;20128;-69
2023/01/23 08:56:59;;;;;;;0.40;0.10;;;;;;;;;;5032603;28;20124;-69
2023/01/23 08:59:29;;;;;;;1.50;0.23;;;;;;;;;;5033099;28;20052;-70
2023/01/23 09:01:55;;;;;;;0.10;0.10;;;;;;;;;;5032719;28;20041;-69
2023/01/23 09:04:30;;;;;;;0.10;0.00;;;;;;;;;;5033944;28;20125;-70
2023/01/23 09:06:56;;;;;;;0.33;0.00;;;;;;;;;;5034220;28;20432;-69
2023/01/23 09:09:23;;;;;;;0.73;0.23;;;;;;;;;;5033982;28;20038;-69
2023/01/23 09:11:49;;;;;;;0.93;0.20;;;;;;;;;;5032381;28;20030;-70
2023/01/23 09:14:18;;;;;;;0.37;0.10;;;;;;;;;;5033695;28;20403;-70
2023/01/23 09:16:44;;;;;;;0.47;0.17;;;;;;;;;;5033039;28;20052;-69
2023/01/23 09:19:11;;;;;;;0.10;0.10;;;;;;;;;;5033889;28;20033;-69
2023/01/23 09:21:38;;;;;;;0.30;0.10;;;;;;;;;;5033802;28;20380;-70
2023/01/23 09:24:04;;;;;;;0.17;0.13;;;;;;;;;;5033441;28;20044;-70
2023/01/23 09:26:31;;;;;;;0.10;0.10;;;;;;;;;;5033000;28;20034;-69
2023/01/23 09:28:57;;;;;;;0.23;0.10;;;;;;;;;;5031988;28;20032;-70
2023/01/23 09:31:23;;;;;;;0.70;0.10;;;;;;;;;;5030939;28;20045;-70
2023/01/23 09:33:49;;;;;;;3.13;0.10;;;;;;;;;;5033347;28;20038;-68
2023/01/23 09:36:15;;;;;;;0.47;0.13;;;;;;;;;;5033618;28;20084;-69
2023/01/23 09:38:41;;;;;;;0.30;0.10;;;;;;;;;;5034342;28;20383;-69
2023/01/23 09:41:16;;;;;;;0.07;0.07;;;;;;;;;;5033546;28;20120;-69
2023/01/23 09:43:49;;;;;;;0.60;0.20;;;;;;;;;;5033068;28;20567;-69
2023/01/23 09:46:17;;;;;;;0.20;0.10;;;;;;;;;;5031476;28;20072;-69
2023/01/23 09:48:44;;;;;;;0.20;0.10;;;;;;;;;;5032911;28;20037;-69
2023/01/23 09:51:20;;;;;;;3.60;0.30;;;;;;;;;;5033042;28;20530;-69
2023/01/23 09:53:46;;;;;;;2.33;0.10;;;;;;;;;;5032600;28;20049;-69
2023/01/23 09:56:27;;;;;;;1.50;0.10;;;;;;;;;;5032639;28;20037;-70
2023/01/23 09:58:59;;;;;;;0.83;0.20;;;;;;;;;;5032345;28;20044;-69
2023/01/23 10:01:27;;;;;;;0.32;0.17;;;;;;;;;;5032600;28;20112;-69
2023/01/23 10:03:54;;;;;;;0.20;0.20;;;;;;;;;;5032018;28;20535;-69
2023/01/23 10:06:27;;;;;;;0.13;0.10;;;;;;;;;;5032124;28;20037;-70
2023/01/23 10:08:59;;;;;;;0.30;0.20;;;;;;;;;;5032533;28;20495;-69
2023/01/23 10:11:28;;;;;;;0.20;0.10;;;;;;;;;;5032746;28;20040;-69
2023/01/23 10:14:19;;;;;;;0.13;0.10;;;;;;;;;;5032773;28;20426;-69
2023/01/23 10:16:51;;;;;;;0.57;0.20;;;;;;;;;;5032879;28;20038;-69
2023/01/23 10:19:24;;;;;;;0.32;0.10;;;;;;;;;;5032458;28;20042;-70
2023/01/23 10:21:55;;;;;;;0.00;0.00;;;;;;;;;;5032621;28;20075;-69
2023/01/23 10:24:34;;;;;;;1.43;0.10;;;;;;;;;;5032907;28;20037;-69
2023/01/23 10:27:07;;;;;;;0.20;0.10;;;;;;;;;;5032293;28;20033;-70
2023/01/23 10:29:36;;;;;;;4.10;0.20;;;;;;;;;;5032292;28;20037;-70
2023/01/23 10:32:05;;;;;;;0.50;0.10;;;;;;;;;;5032302;28;20495;-69
2023/01/23 10:34:43;;;;;;;0.10;0.03;;;;;;;;;;5032266;28;20036;-70
2023/01/23 10:37:36;;;;;;;0.80;0.20;;;;;;;;;;5032302;28;20038;-69
2023/01/23 10:40:02;;;;;;;3.30;0.50;;;;;;;;;;5032543;28;20053;-70
2023/01/23 10:42:29;;;;;;;1.13;0.33;;;;;;;;;;5032025;28;20049;-69
2023/01/23 10:44:55;;;;;;;0.67;0.27;;;;;;;;;;5032392;28;20424;-69
2023/01/23 10:47:26;;;;;;;1.07;0.50;;;;;;;;;;5032489;28;20471;-69
2023/01/23 10:49:52;;;;;;;0.97;0.60;;;;;;;;;;5032295;28;20044;-69
2023/01/23 10:52:25;;;;;;;2.60;0.50;;;;;;;;;;5043559;28;20108;-69
2023/01/23 10:54:51;;;;;;;1.10;0.20;;;;;;;;;;5051913;28;20036;-69
2023/01/23 10:57:17;;;;;;;0.70;0.30;;;;;;;;;;5051715;28;20044;-70
2023/01/23 11:00:03;;;;;;;5.43;2.20;;;;;;;;;;5051780;28;20056;-68
2023/01/23 11:02:33;;;;;;;2.10;1.30;;;;;;;;;;5048497;28;20033;-68
2023/01/23 11:04:59;;;;;;;0.63;0.40;;;;;;;;;;5051952;28;20032;-69
2023/01/23 11:07:32;;;;;;;0.77;0.20;;;;;;;;;;5051758;28;20486;-69
2023/01/23 11:10:00;;;;;;;0.67;0.20;;;;;;;;;;5051700;28;20036;-69
2023/01/23 11:12:26;;;;;;;3.40;1.70;;;;;;;;;;5051316;28;20041;-69
2023/01/23 11:15:11;;;;;;;0.77;0.40;;;;;;;;;;5050685;28;20044;-69
2023/01/23 11:17:38;;;;;;;1.03;0.53;;;;;;;;;;5048564;28;20144;-69
2023/01/23 11:20:11;;;;;;;0.20;0.10;;;;;;;;;;5048606;28;20083;-69
2023/01/23 11:22:38;;;;;;;2.37;1.17;;;;;;;;;;5048688;28;20052;-70
2023/01/23 11:25:30;;;;;;;3.13;1.00;;;;;;;;;;5050852;28;20036;-69
2023/01/23 11:27:57;;;;;;;0.22;0.10;;;;;;;;;;5049676;28;20430;-68
2023/01/23 11:30:27;;;;;;;0.13;0.13;;;;;;;;;;5051799;28;20033;-69
2023/01/23 11:33:03;;;;;;;1.10;0.50;;;;;;;;;;5049853;28;20040;-69
2023/01/23 11:35:35;;;;;;;2.17;1.63;;;;;;;;;;5046426;28;20037;-69
2023/01/23 11:38:03;;;;;;;22.57;19.73;;;;;;;;;;5049842;28;20483;-69
2023/01/23 11:40:29;;;;;;;2.73;2.00;;;;;;;;;;5055717;28;20051;-69
2023/01/23 11:42:55;;;;;;;1.90;1.60;;;;;;;;;;5055655;28;20049;-69
2023/01/23 11:45:30;;;;;;;1.90;1.10;;;;;;;;;;5055662;28;20091;-69
2023/01/23 11:48:04;;;;;;;0.80;0.60;;;;;;;;;;5055843;28;20036;-69
2023/01/23 11:50:45;;;;;;;23.13;1.03;;;;;;;;;;5055504;28;20033;-69
2023/01/23 11:53:34;;;;;;;1.63;0.20;;;;;;;;;;5055173;28;20098;-69
2023/01/23 11:56:00;;;;;;;1.23;0.40;;;;;;;;;;5049826;28;20037;-69
2023/01/23 11:58:36;;;;;;;0.50;0.20;;;;;;;;;;5055136;28;20049;-69
2023/01/23 12:01:22;;;;;;;1.07;0.30;;;;;;;;;;5055355;28;20037;-69
2023/01/23 12:04:06;;;;;;;0.83;0.30;;;;;;;;;;5054944;28;20045;-69
2023/01/23 12:06:51;;;;;;;0.10;0.10;;;;;;;;;;5055198;28;20123;-69
2023/01/23 12:09:19;;;;;;;1.13;0.20;;;;;;;;;;5055199;28;20033;-69
2023/01/23 12:12:05;;;;;;;3.43;0.90;;;;;;;;;;5054942;28;20120;-69
2023/01/23 12:14:38;;;;;;;2.20;0.90;;;;;;;;;;5054812;28;20037;-69
2023/01/23 12:17:12;;;;;;;1.63;0.77;;;;;;;;;;5054719;28;20078;-69
2023/01/23 12:20:02;;;;;;;2.37;0.70;;;;;;;;;;5054843;28;20041;-69
2023/01/23 12:22:34;;;;;;;7.17;2.40;;;;;;;;;;5054613;28;20092;-69
2023/01/23 12:25:19;;;;;;;3.72;0.50;;;;;;;;;;5054522;28;20158;-70
2023/01/23 12:27:47;;;;;;;0.40;0.20;;;;;;;;;;5054106;28;20029;-69
2023/01/23 12:30:25;;;;;;;0.53;0.20;;;;;;;;;;5054271;28;20112;-69
2023/01/23 12:33:03;;;;;;;0.60;0.30;;;;;;;;;;5054256;28;20036;-69
2023/01/23 12:35:33;;;;;;;1.00;0.50;;;;;;;;;;5054364;28;20119;-70
2023/01/23 12:38:06;;;;;;;0.87;0.40;;;;;;;;;;5054231;28;20496;-69
2023/01/23 12:40:37;;;;;;;0.43;0.30;;;;;;;;;;5054258;28;20033;-69
2023/01/23 12:43:12;;;;;;;1.63;0.60;;;;;;;;;;5054393;28;20064;-69
2023/01/23 12:45:41;;;;;;;3.13;0.60;;;;;;;;;;5054425;28;20036;-69
2023/01/23 12:48:12;;;;;;;1.00;0.40;;;;;;;;;;5054076;28;20037;-69
2023/01/23 12:50:54;;;;;;;2.07;0.40;;;;;;;;;;5054125;28;20113;-69
2023/01/23 12:53:25;;;;;;;0.20;0.20;;;;;;;;;;5054465;28;20036;-70
2023/01/23 12:55:51;;;;;;;0.80;0.20;;;;;;;;;;5053473;28;20067;-69
2023/01/23 12:58:18;;;;;;;0.37;0.30;;;;;;;;;;5050975;28;20077;-69
2023/01/23 13:01:04;;;;;;;1.03;0.50;;;;;;;;;;5051487;28;20037;-69
2023/01/23 13:03:34;;;;;;;1.43;0.50;;;;;;;;;;5045659;28;20044;-69
2023/01/23 13:06:00;;;;;;;0.63;0.30;;;;;;;;;;5053796;28;20037;-69
2023/01/23 13:08:44;;;;;;;6.90;0.37;;;;;;;;;;5053908;28;20492;-69
2023/01/23 13:11:39;;;;;;;0.60;0.30;;;;;;;;;;5053531;28;20029;-69
2023/01/23 13:14:44;;;;;;;0.37;0.20;;;;;;;;;;5052393;28;20094;-69
2023/01/23 13:17:33;;;;;;;3.20;0.20;;;;;;;;;;5047744;28;20359;-69
2023/01/23 13:23:21;;;;;;;1.27;0.43;;;;;;;;;;5053566;28;20473;-69
2023/01/23 13:25:48;;;;;;;1.03;0.40;;;;;;;;;;5053317;28;20511;-68
2023/01/23 13:28:55;;;;;;;0.63;0.30;;;;;;;;;;5053509;28;20037;-69
2023/01/23 13:31:33;;;;;;;2.80;1.30;;;;;;;;;;5033234;28;20044;-69
2023/01/23 13:34:00;;;;;;;4.63;2.70;;;;;;;;;;5053217;28;20040;-69
2023/01/23 13:36:26;;;;;;;2.77;2.17;;;;;;;;;;5053191;28;20032;-69
2023/01/23 13:39:03;;;;;;;0.73;0.40;;;;;;;;;;5053788;28;20099;-69
2023/01/23 13:41:30;;;;;;;1.20;0.80;;;;;;;;;;5053189;28;20372;-69
2023/01/23 13:44:16;;;;;;;1.27;0.90;;;;;;;;;;5053611;28;20516;-69
2023/01/23 13:46:52;;;;;;;2.27;0.60;;;;;;;;;;5053484;28;20118;-69
2023/01/23 13:56:37;;;;;;;0.50;0.33;;;;;;;;;;5050707;28;20043;-69
2023/01/23 13:57:38;;;;;;;1.40;0.50;;;;;;;;;;5053039;28;20206;-69
2023/01/23 14:00:04;;;;;;;1.67;0.57;;;;;;;;;;5053003;28;20112;-69
2023/01/23 14:05:21;;;;;;;1.23;0.53;;;;;;;;;;5053056;28;20096;-68
2023/01/23 14:07:49;;;;;;;0.82;0.60;;;;;;;;;;5052711;28;20532;-69
2023/01/23 14:10:20;;;;;;;6.10;0.60;;;;;;;;;;5052900;28;20391;-70
2023/01/23 14:12:47;;;;;;;0.70;0.30;;;;;;;;;;5052896;28;20037;-68
2023/01/23 14:18:37;;;;;;;0.90;0.30;;;;;;;;;;5052533;28;20098;-70
2023/01/23 14:21:05;;;;;;;0.87;0.50;;;;;;;;;;5052175;28;20124;-69
2023/01/23 14:23:36;;;;;;;1.13;0.50;;;;;;;;;;5052666;28;20398;-69
2023/01/23 14:26:03;;;;;;;1.17;0.37;;;;;;;;;;5052596;28;20029;-69
2023/01/23 14:28:29;;;;;;;1.33;0.40;;;;;;;;;;5052066;28;20556;-70
2023/01/23 14:30:58;;;;;;;1.57;0.50;;;;;;;;;;5052348;28;20432;-69
2023/01/23 14:33:25;;;;;;;0.60;0.40;;;;;;;;;;5052105;28;20037;-70
2023/01/23 14:35:52;;;;;;;0.60;0.30;;;;;;;;;;5052128;28;20119;-69
2023/01/23 14:38:38;;;;;;;0.37;0.33;;;;;;;;;;5052217;28;20116;-69
2023/01/23 14:41:06;;;;;;;0.90;0.50;;;;;;;;;;5050304;28;20055;-69
2023/01/23 14:43:33;;;;;;;2.77;0.60;;;;;;;;;;5051288;28;20040;-69
2023/01/23 14:46:02;;;;;;;4.57;1.20;;;;;;;;;;5037115;28;20478;-69
2023/01/23 14:48:28;;;;;;;2.23;0.80;;;;;;;;;;5031556;28;20041;-69
2023/01/23 14:51:01;;;;;;;0.90;0.50;;;;;;;;;;5031360;28;20042;-69
2023/01/23 14:53:27;;;;;;;1.17;0.30;;;;;;;;;;5031421;28;20088;-69
2023/01/23 14:55:56;;;;;;;4.93;0.50;;;;;;;;;;5031541;28;20040;-69
2023/01/23 14:58:24;;;;;;;0.80;0.50;;;;;;;;;;5031698;28;20042;-68
2023/01/23 15:00:50;;;;;;;7.33;0.70;;;;;;;;;;5031254;28;20021;-69
2023/01/23 15:03:35;;;;;;;1.10;0.50;;;;;;;;;;5031736;28;20164;-68
2023/01/23 15:06:02;;;;;;;3.40;0.90;;;;;;;;;;5031190;28;20033;-69
2023/01/23 15:08:31;;;;;;;1.43;0.60;;;;;;;;;;5031875;28;20036;-69
2023/01/23 15:10:59;;;;;;;1.03;0.57;;;;;;;;;;5030575;28;20056;-70
2023/01/23 15:13:28;;;;;;;2.43;0.60;;;;;;;;;;5029943;28;20037;-70
2023/01/23 15:16:05;;;;;;;3.20;1.10;;;;;;;;;;5033005;28;20400;-69
2023/01/23 15:18:33;;;;;;;1.23;0.67;;;;;;;;;;5034383;28;20430;-69